sensor_id;sensor_type;location;lat;lon;timestamp;pressure;altitude;pressure_sealevel;temperature;humidity
54556;BME280;57291;37.520;15.106;2023-04-04T00:00:37;99853.06;;;13.29;64.51
54556;BME280;57291;37.520;15.106;2023-04-04T00:03:05;99848.72;;;13.28;64.91
54556;BME280;57291;37.520;15.106;2023-04-04T00:05:32;99854.06;;;13.25;64.64
54556;BME280;57291;37.520;15.106;2023-04-04T00:08:02;99863.22;;;13.20;64.17
54556;BME280;57291;37.520;15.106;2023-04-04T00:10:30;99856.97;;;13.20;64.16
54556;BME280;57291;37.520;15.106;2023-04-04T00:12:57;99864.81;;;13.21;63.18
54556;BME280;57291;37.520;15.106;2023-04-04T00:15:24;99860.94;;;13.22;62.25
54556;BME280;57291;37.520;15.106;2023-04-04T00:17:53;99866.06;;;13.24;62.61
54556;BME280;57291;37.520;15.106;2023-04-04T00:20:20;99870.25;;;13.21;62.36
54556;BME280;57291;37.520;15.106;2023-04-04T00:22:47;99867.06;;;13.19;62.04
54556;BME280;57291;37.520;15.106;2023-04-04T00:25:14;99870.13;;;13.18;62.27
54556;BME280;57291;37.520;15.106;2023-04-04T00:27:42;99872.72;;;13.14;62.73
54556;BME280;57291;37.520;15.106;2023-04-04T00:30:09;99871.81;;;13.10;63.16
54556;BME280;57291;37.520;15.106;2023-04-04T00:32:38;99870.41;;;13.04;63.31
54556;BME280;57291;37.520;15.106;2023-04-04T00:35:05;99869.00;;;12.98;63.71
54556;BME280;57291;37.520;15.106;2023-04-04T00:37:33;99871.47;;;12.90;64.45
54556;BME280;57291;37.520;15.106;2023-04-04T00:40:01;99874.38;;;12.85;65.22
54556;BME280;57291;37.520;15.106;2023-04-04T00:42:29;99876.31;;;12.85;65.53
54556;BME280;57291;37.520;15.106;2023-04-04T00:44:57;99873.91;;;12.83;65.18
54556;BME280;57291;37.520;15.106;2023-04-04T00:47:24;99884.81;;;12.83;65.50
54556;BME280;57291;37.520;15.106;2023-04-04T00:49:55;99888.00;;;12.85;65.33
54556;BME280;57291;37.520;15.106;2023-04-04T00:52:22;99894.88;;;12.91;64.71
54556;BME280;57291;37.520;15.106;2023-04-04T00:54:50;99900.28;;;13.00;64.87
54556;BME280;57291;37.520;15.106;2023-04-04T00:57:18;99891.75;;;13.02;64.83
54556;BME280;57291;37.520;15.106;2023-04-04T00:59:45;99887.44;;;13.01;64.94
54556;BME280;57291;37.520;15.106;2023-04-04T01:02:13;99886.94;;;12.99;65.24
54556;BME280;57291;37.520;15.106;2023-04-04T01:04:40;99893.53;;;12.98;65.09
54556;BME280;57291;37.520;15.106;2023-04-04T01:07:08;99891.13;;;12.96;65.22
54556;BME280;57291;37.520;15.106;2023-04-04T01:09:36;99889.41;;;12.91;65.69
54556;BME280;57291;37.520;15.106;2023-04-04T01:12:03;99897.59;;;12.91;65.87
54556;BME280;57291;37.520;15.106;2023-04-04T01:14:32;99891.38;;;12.82;65.98
54556;BME280;57291;37.520;15.106;2023-04-04T01:16:59;99894.97;;;12.74;66.14
54556;BME280;57291;37.520;15.106;2023-04-04T01:19:32;99903.69;;;12.67;66.40
54556;BME280;57291;37.520;15.106;2023-04-04T01:22:06;99899.81;;;12.68;67.45
54556;BME280;57291;37.520;15.106;2023-04-04T01:24:34;99895.81;;;12.66;68.31
54556;BME280;57291;37.520;15.106;2023-04-04T01:27:03;99887.97;;;12.64;69.18
54556;BME280;57291;37.520;15.106;2023-04-04T01:29:35;99879.19;;;12.59;70.51
54556;BME280;57291;37.520;15.106;2023-04-04T01:32:11;99884.16;;;12.57;71.62
54556;BME280;57291;37.520;15.106;2023-04-04T01:38:23;99877.81;;;12.44;68.83
54556;BME280;57291;37.520;15.106;2023-04-04T01:40:33;99884.09;;;12.36;68.05
54556;BME280;57291;37.520;15.106;2023-04-04T01:43:04;99883.34;;;12.27;67.30
54556;BME280;57291;37.520;15.106;2023-04-04T01:45:35;99882.25;;;12.19;67.12
54556;BME280;57291;37.520;15.106;2023-04-04T01:48:07;99883.25;;;12.14;67.16
54556;BME280;57291;37.520;15.106;2023-04-04T01:50:35;99870.44;;;12.06;67.23
54556;BME280;57291;37.520;15.106;2023-04-04T01:53:02;99872.53;;;12.01;67.47
54556;BME280;57291;37.520;15.106;2023-04-04T01:55:29;99871.44;;;11.93;68.32
54556;BME280;57291;37.520;15.106;2023-04-04T01:57:57;99870.16;;;11.82;68.82
54556;BME280;57291;37.520;15.106;2023-04-04T02:00:24;99870.31;;;11.77;68.81
54556;BME280;57291;37.520;15.106;2023-04-04T02:02:51;99878.34;;;11.73;69.09
54556;BME280;57291;37.520;15.106;2023-04-04T02:05:18;99878.50;;;11.68;69.30
54556;BME280;57291;37.520;15.106;2023-04-04T02:07:47;99874.81;;;11.64;69.63
54556;BME280;57291;37.520;15.106;2023-04-04T02:10:25;99886.34;;;11.61;69.73
54556;BME280;57291;37.520;15.106;2023-04-04T02:12:52;99886.19;;;11.57;69.65
54556;BME280;57291;37.520;15.106;2023-04-04T02:15:21;99898.22;;;11.56;70.18
54556;BME280;57291;37.520;15.106;2023-04-04T02:17:49;99904.59;;;11.51;70.14
54556;BME280;57291;37.520;15.106;2023-04-04T02:20:17;99913.59;;;11.43;70.70
54556;BME280;57291;37.520;15.106;2023-04-04T02:22:52;99911.34;;;11.37;70.97
54556;BME280;57291;37.520;15.106;2023-04-04T02:25:21;99913.44;;;11.40;71.95
54556;BME280;57291;37.520;15.106;2023-04-04T02:27:49;99912.63;;;11.39;72.37
54556;BME280;57291;37.520;15.106;2023-04-04T02:30:16;99918.22;;;11.43;72.57
54556;BME280;57291;37.520;15.106;2023-04-04T02:32:45;99918.06;;;11.39;72.70
54556;BME280;57291;37.520;15.106;2023-04-04T02:35:16;99920.00;;;11.39;73.15
54556;BME280;57291;37.520;15.106;2023-04-04T02:37:44;99925.28;;;11.35;73.22
54556;BME280;57291;37.520;15.106;2023-04-04T02:40:22;99918.06;;;11.31;73.45
54556;BME280;57291;37.520;15.106;2023-04-04T02:42:49;99920.63;;;11.36;73.72
54556;BME280;57291;37.520;15.106;2023-04-04T02:45:18;99925.75;;;11.37;73.53
54556;BME280;57291;37.520;15.106;2023-04-04T02:47:54;99929.75;;;11.40;73.33
54556;BME280;57291;37.520;15.106;2023-04-04T02:50:27;99937.28;;;11.34;73.29
54556;BME280;57291;37.520;15.106;2023-04-04T02:52:59;99932.94;;;11.24;73.23
54556;BME280;57291;37.520;15.106;2023-04-04T02:55:33;99936.00;;;11.23;73.60
54556;BME280;57291;37.520;15.106;2023-04-04T02:58:01;99945.25;;;11.22;73.54
54556;BME280;57291;37.520;15.106;2023-04-04T03:00:28;99945.59;;;11.20;73.53
54556;BME280;57291;37.520;15.106;2023-04-04T03:02:56;99947.81;;;11.18;73.45
54556;BME280;57291;37.520;15.106;2023-04-04T03:05:30;99951.16;;;11.15;73.62
54556;BME280;57291;37.520;15.106;2023-04-04T03:07:58;99954.88;;;11.19;73.44
54556;BME280;57291;37.520;15.106;2023-04-04T03:10:27;99953.91;;;11.24;73.33
54556;BME280;57291;37.520;15.106;2023-04-04T03:12:56;99958.72;;;11.27;73.06
54556;BME280;57291;37.520;15.106;2023-04-04T03:15:25;99955.34;;;11.21;73.15
54556;BME280;57291;37.520;15.106;2023-04-04T03:17:53;99956.78;;;11.19;73.17
54556;BME280;57291;37.520;15.106;2023-04-04T03:20:24;99950.53;;;11.18;73.64
54556;BME280;57291;37.520;15.106;2023-04-04T03:22:52;99956.13;;;11.22;73.63
54556;BME280;57291;37.520;15.106;2023-04-04T03:25:19;99959.81;;;11.17;73.55
54556;BME280;57291;37.520;15.106;2023-04-04T03:27:46;99962.88;;;11.16;73.26
54556;BME280;57291;37.520;15.106;2023-04-04T03:30:20;99959.19;;;11.20;72.93
54556;BME280;57291;37.520;15.106;2023-04-04T03:32:47;99964.16;;;11.27;71.63
54556;BME280;57291;37.520;15.106;2023-04-04T03:35:16;99958.88;;;11.31;71.46
54556;BME280;57291;37.520;15.106;2023-04-04T03:37:44;99965.09;;;11.31;71.48
54556;BME280;57291;37.520;15.106;2023-04-04T03:40:11;99971.19;;;11.28;71.62
54556;BME280;57291;37.520;15.106;2023-04-04T03:42:39;99968.13;;;11.21;71.73
54556;BME280;57291;37.520;15.106;2023-04-04T03:45:10;99969.25;;;11.20;71.93
54556;BME280;57291;37.520;15.106;2023-04-04T03:47:39;99968.31;;;11.16;72.00
54556;BME280;57291;37.520;15.106;2023-04-04T03:50:07;99977.41;;;11.11;72.48
54556;BME280;57291;37.520;15.106;2023-04-04T03:52:37;99983.78;;;11.07;72.69
54556;BME280;57291;37.520;15.106;2023-04-04T03:55:08;99978.19;;;11.03;73.37
54556;BME280;57291;37.520;15.106;2023-04-04T03:57:35;99993.06;;;11.06;73.09
54556;BME280;57291;37.520;15.106;2023-04-04T04:00:08;99990.03;;;11.07;72.88
54556;BME280;57291;37.520;15.106;2023-04-04T04:02:38;99999.47;;;11.10;72.83
54556;BME280;57291;37.520;15.106;2023-04-04T04:05:08;99999.66;;;11.13;72.63
54556;BME280;57291;37.520;15.106;2023-04-04T04:07:35;100000.94;;;11.16;72.45
54556;BME280;57291;37.520;15.106;2023-04-04T04:10:02;99998.53;;;11.14;72.32
54556;BME280;57291;37.520;15.106;2023-04-04T04:12:31;100004.75;;;11.15;72.18
54556;BME280;57291;37.520;15.106;2023-04-04T04:14:58;100006.50;;;11.11;72.22
54556;BME280;57291;37.520;15.106;2023-04-04T04:17:28;100006.22;;;11.12;72.05
54556;BME280;57291;37.520;15.106;2023-04-04T04:19:56;100008.09;;;11.12;71.67
54556;BME280;57291;37.520;15.106;2023-04-04T04:22:24;100005.22;;;11.08;71.64
54556;BME280;57291;37.520;15.106;2023-04-04T04:24:51;100013.72;;;11.07;71.81
54556;BME280;57291;37.520;15.106;2023-04-04T04:27:19;100012.28;;;11.09;71.71
54556;BME280;57291;37.520;15.106;2023-04-04T04:29:46;100014.66;;;11.11;71.67
54556;BME280;57291;37.520;15.106;2023-04-04T04:32:17;100011.66;;;11.12;71.51
54556;BME280;57291;37.520;15.106;2023-04-04T04:34:48;100009.41;;;11.14;71.43
54556;BME280;57291;37.520;15.106;2023-04-04T04:37:20;100002.69;;;11.20;71.21
54556;BME280;57291;37.520;15.106;2023-04-04T04:39:51;100014.56;;;11.33;69.87
54556;BME280;57291;37.520;15.106;2023-04-04T04:42:43;100021.81;;;11.55;66.49
54556;BME280;57291;37.520;15.106;2023-04-04T04:45:14;100018.75;;;11.74;64.68
54556;BME280;57291;37.520;15.106;2023-04-04T04:47:46;100021.81;;;11.81;63.81
54556;BME280;57291;37.520;15.106;2023-04-04T04:50:16;100021.03;;;11.89;63.02
54556;BME280;57291;37.520;15.106;2023-04-04T04:52:49;100039.13;;;12.03;62.21
54556;BME280;57291;37.520;15.106;2023-04-04T04:55:17;100039.25;;;12.24;61.90
54556;BME280;57291;37.520;15.106;2023-04-04T04:57:53;100041.13;;;12.58;61.40
54556;BME280;57291;37.520;15.106;2023-04-04T05:00:24;100036.94;;;12.69;60.88
54556;BME280;57291;37.520;15.106;2023-04-04T05:02:54;100042.88;;;12.71;61.04
54556;BME280;57291;37.520;15.106;2023-04-04T05:05:35;100050.25;;;12.62;61.76
54556;BME280;57291;37.520;15.106;2023-04-04T05:08:07;100060.88;;;12.55;62.29
54556;BME280;57291;37.520;15.106;2023-04-04T05:10:38;100068.56;;;12.53;63.04
54556;BME280;57291;37.520;15.106;2023-04-04T05:13:07;100073.00;;;12.66;63.48
54556;BME280;57291;37.520;15.106;2023-04-04T05:15:41;100080.53;;;12.78;63.30
54556;BME280;57291;37.520;15.106;2023-04-04T05:18:08;100082.28;;;12.82;63.18
54556;BME280;57291;37.520;15.106;2023-04-04T05:20:36;100086.47;;;13.18;63.53
54556;BME280;57291;37.520;15.106;2023-04-04T05:23:06;100094.53;;;14.37;62.72
54556;BME280;57291;37.520;15.106;2023-04-04T05:25:37;100080.94;;;15.80;57.50
54556;BME280;57291;37.520;15.106;2023-04-04T05:28:05;100082.28;;;16.71;53.52
54556;BME280;57291;37.520;15.106;2023-04-04T05:30:35;100092.00;;;17.79;52.83
54556;BME280;57291;37.520;15.106;2023-04-04T05:33:10;100106.69;;;18.84;49.47
54556;BME280;57291;37.520;15.106;2023-04-04T05:35:42;100109.97;;;18.89;45.10
54556;BME280;57291;37.520;15.106;2023-04-04T05:38:09;100113.91;;;18.11;48.01
54556;BME280;57291;37.520;15.106;2023-04-04T05:40:37;100116.19;;;17.73;49.14
54556;BME280;57291;37.520;15.106;2023-04-04T05:43:09;100112.84;;;17.99;48.40
54556;BME280;57291;37.520;15.106;2023-04-04T05:45:50;100112.97;;;17.36;49.82
54556;BME280;57291;37.520;15.106;2023-04-04T05:48:18;100110.84;;;17.45;48.39
54556;BME280;57291;37.520;15.106;2023-04-04T05:50:48;100113.84;;;17.40;48.84
54556;BME280;57291;37.520;15.106;2023-04-04T05:53:18;100122.38;;;17.35;48.79
54556;BME280;57291;37.520;15.106;2023-04-04T05:55:52;100112.88;;;17.48;49.86
54556;BME280;57291;37.520;15.106;2023-04-04T05:58:25;100125.81;;;17.99;49.44
54556;BME280;57291;37.520;15.106;2023-04-04T06:00:56;100134.31;;;18.48;47.64
54556;BME280;57291;37.520;15.106;2023-04-04T06:03:23;100130.16;;;19.20;45.13
54556;BME280;57291;37.520;15.106;2023-04-04T06:05:51;100122.34;;;20.66;42.45
54556;BME280;57291;37.520;15.106;2023-04-04T06:08:19;100128.28;;;21.49;40.58
54556;BME280;57291;37.520;15.106;2023-04-04T06:10:46;100130.78;;;21.65;40.85
54556;BME280;57291;37.520;15.106;2023-04-04T06:13:13;100131.59;;;21.25;41.38
54556;BME280;57291;37.520;15.106;2023-04-04T06:15:44;100126.13;;;21.32;41.82
54556;BME280;57291;37.520;15.106;2023-04-04T06:18:12;100135.44;;;21.54;42.20
54556;BME280;57291;37.520;15.106;2023-04-04T06:20:39;100142.66;;;21.25;42.22
54556;BME280;57291;37.520;15.106;2023-04-04T06:23:07;100150.56;;;21.74;42.04
54556;BME280;57291;37.520;15.106;2023-04-04T06:25:40;100146.97;;;22.29;42.00
54556;BME280;57291;37.520;15.106;2023-04-04T06:28:07;100152.56;;;22.47;41.61
54556;BME280;57291;37.520;15.106;2023-04-04T06:30:35;100150.31;;;22.92;40.42
54556;BME280;57291;37.520;15.106;2023-04-04T06:33:07;100165.44;;;23.45;39.11
54556;BME280;57291;37.520;15.106;2023-04-04T06:35:40;100163.84;;;23.11;38.70
54556;BME280;57291;37.520;15.106;2023-04-04T06:38:07;100161.50;;;23.42;39.29
54556;BME280;57291;37.520;15.106;2023-04-04T06:40:35;100165.38;;;24.20;38.35
54556;BME280;57291;37.520;15.106;2023-04-04T06:43:03;100172.09;;;25.07;37.51
54556;BME280;57291;37.520;15.106;2023-04-04T06:45:43;100177.47;;;24.76;38.22
54556;BME280;57291;37.520;15.106;2023-04-04T06:48:11;100183.72;;;25.50;36.76
54556;BME280;57291;37.520;15.106;2023-04-04T06:50:38;100192.00;;;25.01;37.45
54556;BME280;57291;37.520;15.106;2023-04-04T06:53:09;100190.50;;;25.98;35.03
54556;BME280;57291;37.520;15.106;2023-04-04T06:55:38;100192.75;;;26.10;34.57
54556;BME280;57291;37.520;15.106;2023-04-04T06:58:05;100193.78;;;26.61;34.30
54556;BME280;57291;37.520;15.106;2023-04-04T07:00:32;100195.56;;;27.05;33.16
54556;BME280;57291;37.520;15.106;2023-04-04T07:03:00;100202.28;;;27.08;31.50
54556;BME280;57291;37.520;15.106;2023-04-04T07:05:27;100202.28;;;26.50;32.55
54556;BME280;57291;37.520;15.106;2023-04-04T07:07:55;100204.25;;;26.12;32.75
54556;BME280;57291;37.520;15.106;2023-04-04T07:10:23;100213.44;;;25.64;32.83
54556;BME280;57291;37.520;15.106;2023-04-04T07:12:51;100209.97;;;25.98;32.29
54556;BME280;57291;37.520;15.106;2023-04-04T07:15:18;100211.97;;;26.35;31.07
54556;BME280;57291;37.520;15.106;2023-04-04T07:17:45;100206.09;;;25.88;29.36
54556;BME280;57291;37.520;15.106;2023-04-04T07:20:13;100206.38;;;25.52;31.21
54556;BME280;57291;37.520;15.106;2023-04-04T07:22:40;100204.94;;;25.30;30.79
54556;BME280;57291;37.520;15.106;2023-04-04T07:25:08;100227.28;;;23.84;33.13
54556;BME280;57291;37.520;15.106;2023-04-04T07:27:36;100228.00;;;24.39;32.34
54556;BME280;57291;37.520;15.106;2023-04-04T07:30:03;100230.00;;;24.45;32.29
54556;BME280;57291;37.520;15.106;2023-04-04T07:32:30;100232.63;;;24.74;30.55
54556;BME280;57291;37.520;15.106;2023-04-04T07:34:58;100245.75;;;24.73;31.92
54556;BME280;57291;37.520;15.106;2023-04-04T07:37:25;100245.03;;;24.59;31.62
54556;BME280;57291;37.520;15.106;2023-04-04T07:39:52;100247.84;;;23.48;32.67
54556;BME280;57291;37.520;15.106;2023-04-04T07:42:19;100251.94;;;22.66;34.79
54556;BME280;57291;37.520;15.106;2023-04-04T07:44:49;100258.84;;;22.94;33.73
54556;BME280;57291;37.520;15.106;2023-04-04T07:47:17;100262.94;;;22.48;34.56
54556;BME280;57291;37.520;15.106;2023-04-04T07:49:44;100279.09;;;22.36;35.70
54556;BME280;57291;37.520;15.106;2023-04-04T07:52:11;100274.34;;;22.36;35.26
54556;BME280;57291;37.520;15.106;2023-04-04T07:54:39;100282.47;;;20.96;37.50
54556;BME280;57291;37.520;15.106;2023-04-04T07:57:06;100276.94;;;20.96;38.48
54556;BME280;57291;37.520;15.106;2023-04-04T07:59:36;100284.19;;;21.82;37.96
54556;BME280;57291;37.520;15.106;2023-04-04T08:02:03;100296.88;;;21.87;37.00
54556;BME280;57291;37.520;15.106;2023-04-04T08:04:30;100294.72;;;21.66;38.69
54556;BME280;57291;37.520;15.106;2023-04-04T08:06:57;100306.44;;;21.96;37.06
54556;BME280;57291;37.520;15.106;2023-04-04T08:09:26;100309.09;;;21.45;37.63
54556;BME280;57291;37.520;15.106;2023-04-04T08:11:57;100309.63;;;21.58;37.55
54556;BME280;57291;37.520;15.106;2023-04-04T08:14:24;100322.28;;;21.25;38.21
54556;BME280;57291;37.520;15.106;2023-04-04T08:16:51;100313.03;;;21.85;37.54
54556;BME280;57291;37.520;15.106;2023-04-04T08:19:18;100318.06;;;21.01;40.08
54556;BME280;57291;37.520;15.106;2023-04-04T08:21:46;100320.09;;;21.38;38.55
54556;BME280;57291;37.520;15.106;2023-04-04T08:24:13;100323.63;;;21.04;39.04
54556;BME280;57291;37.520;15.106;2023-04-04T08:26:40;100333.59;;;20.82;38.91
54556;BME280;57291;37.520;15.106;2023-04-04T08:29:12;100323.25;;;19.77;39.04
54556;BME280;57291;37.520;15.106;2023-04-04T08:31:39;100338.94;;;18.24;42.50
54556;BME280;57291;37.520;15.106;2023-04-04T08:34:07;100335.66;;;17.87;44.88
54556;BME280;57291;37.520;15.106;2023-04-04T08:36:34;100338.66;;;17.82;45.04
54556;BME280;57291;37.520;15.106;2023-04-04T08:39:01;100344.09;;;17.94;44.69
54556;BME280;57291;37.520;15.106;2023-04-04T08:41:29;100348.66;;;17.74;45.94
54556;BME280;57291;37.520;15.106;2023-04-04T08:44:01;100349.69;;;17.70;45.66
54556;BME280;57291;37.520;15.106;2023-04-04T08:46:30;100349.09;;;17.61;45.85
54556;BME280;57291;37.520;15.106;2023-04-04T08:48:59;100360.72;;;17.42;46.22
54556;BME280;57291;37.520;15.106;2023-04-04T08:51:28;100363.97;;;17.31;46.99
54556;BME280;57291;37.520;15.106;2023-04-04T08:53:58;100361.13;;;17.28;47.56
54556;BME280;57291;37.520;15.106;2023-04-04T08:56:27;100356.47;;;17.16;48.56
54556;BME280;57291;37.520;15.106;2023-04-04T08:58:54;100365.97;;;17.19;49.04
54556;BME280;57291;37.520;15.106;2023-04-04T09:01:21;100370.97;;;17.29;47.66
54556;BME280;57291;37.520;15.106;2023-04-04T09:03:50;100367.34;;;17.13;48.13
54556;BME280;57291;37.520;15.106;2023-04-04T09:06:17;100375.22;;;17.14;49.42
54556;BME280;57291;37.520;15.106;2023-04-04T09:08:46;100378.91;;;17.18;49.14
54556;BME280;57291;37.520;15.106;2023-04-04T09:11:13;100388.97;;;17.14;51.22
54556;BME280;57291;37.520;15.106;2023-04-04T09:13:43;100394.56;;;17.18;51.96
54556;BME280;57291;37.520;15.106;2023-04-04T09:16:11;100388.13;;;17.26;51.27
54556;BME280;57291;37.520;15.106;2023-04-04T09:18:39;100390.97;;;17.01;51.23
54556;BME280;57291;37.520;15.106;2023-04-04T09:21:10;100397.66;;;17.16;52.63
54556;BME280;57291;37.520;15.106;2023-04-04T09:23:38;100393.75;;;17.17;53.23
54556;BME280;57291;37.520;15.106;2023-04-04T09:26:05;100399.72;;;17.19;53.70
54556;BME280;57291;37.520;15.106;2023-04-04T09:28:32;100405.19;;;17.19;53.07
54556;BME280;57291;37.520;15.106;2023-04-04T09:31:02;100395.47;;;17.22;52.83
54556;BME280;57291;37.520;15.106;2023-04-04T09:33:32;100399.81;;;17.23;53.06
54556;BME280;57291;37.520;15.106;2023-04-04T09:36:07;100396.50;;;17.17;53.62
54556;BME280;57291;37.520;15.106;2023-04-04T09:38:40;100417.34;;;17.06;53.78
54556;BME280;57291;37.520;15.106;2023-04-04T09:41:15;100410.63;;;16.67;56.58
54556;BME280;57291;37.520;15.106;2023-04-04T09:43:45;100414.75;;;16.60;55.86
54556;BME280;57291;37.520;15.106;2023-04-04T09:46:13;100412.66;;;16.45;57.22
54556;BME280;57291;37.520;15.106;2023-04-04T09:48:48;100412.69;;;16.94;58.37
54556;BME280;57291;37.520;15.106;2023-04-04T09:51:16;100420.34;;;17.01;57.39
54556;BME280;57291;37.520;15.106;2023-04-04T09:53:46;100413.66;;;17.14;57.90
54556;BME280;57291;37.520;15.106;2023-04-04T09:56:15;100414.38;;;17.51;58.16
54556;BME280;57291;37.520;15.106;2023-04-04T09:58:46;100412.34;;;17.36;58.60
54556;BME280;57291;37.520;15.106;2023-04-04T10:01:29;100422.75;;;17.43;59.05
54556;BME280;57291;37.520;15.106;2023-04-04T10:03:56;100426.81;;;17.61;59.09
54556;BME280;57291;37.520;15.106;2023-04-04T10:06:24;100429.59;;;18.05;57.75
54556;BME280;57291;37.520;15.106;2023-04-04T10:08:52;100435.84;;;18.34;56.86
54556;BME280;57291;37.520;15.106;2023-04-04T10:11:31;100429.59;;;17.49;56.55
54556;BME280;57291;37.520;15.106;2023-04-04T10:14:01;100430.72;;;17.20;60.60
54556;BME280;57291;37.520;15.106;2023-04-04T10:16:33;100427.22;;;17.47;59.38
54556;BME280;57291;37.520;15.106;2023-04-04T10:19:03;100428.59;;;17.41;59.83
54556;BME280;57291;37.520;15.106;2023-04-04T10:21:33;100428.38;;;17.34;60.13
54556;BME280;57291;37.520;15.106;2023-04-04T10:24:00;100429.31;;;17.26;60.34
54556;BME280;57291;37.520;15.106;2023-04-04T10:26:35;100428.69;;;17.73;58.66
54556;BME280;57291;37.520;15.106;2023-04-04T10:29:03;100438.94;;;17.20;60.34
54556;BME280;57291;37.520;15.106;2023-04-04T10:31:32;100430.72;;;17.20;60.90
54556;BME280;57291;37.520;15.106;2023-04-04T10:34:11;100434.25;;;17.61;59.40
54556;BME280;57291;37.520;15.106;2023-04-04T10:36:44;100436.03;;;17.81;57.94
54556;BME280;57291;37.520;15.106;2023-04-04T10:39:23;100442.81;;;17.71;59.15
54556;BME280;57291;37.520;15.106;2023-04-04T10:41:53;100451.97;;;17.63;58.42
54556;BME280;57291;37.520;15.106;2023-04-04T10:44:36;100441.06;;;17.51;58.35
54556;BME280;57291;37.520;15.106;2023-04-04T10:49:44;100439.50;;;17.38;59.88
54556;BME280;57291;37.520;15.106;2023-04-04T10:52:18;100446.69;;;17.42;59.65
54556;BME280;57291;37.520;15.106;2023-04-04T10:54:46;100462.06;;;17.19;60.46
54556;BME280;57291;37.520;15.106;2023-04-04T10:57:16;100448.56;;;17.26;60.18
54556;BME280;57291;37.520;15.106;2023-04-04T11:00:04;100453.72;;;17.55;60.39
54556;BME280;57291;37.520;15.106;2023-04-04T11:05:35;100469.41;;;17.02;59.88
54556;BME280;57291;37.520;15.106;2023-04-04T11:08:19;100470.69;;;16.93;61.22
54556;BME280;57291;37.520;15.106;2023-04-04T11:10:49;100474.47;;;16.76;61.94
54556;BME280;57291;37.520;15.106;2023-04-04T11:13:18;100481.50;;;16.52;62.13
54556;BME280;57291;37.520;15.106;2023-04-04T11:16:03;100480.22;;;16.37;63.70
54556;BME280;57291;37.520;15.106;2023-04-04T11:21:18;100472.06;;;16.16;63.35
54556;BME280;57291;37.520;15.106;2023-04-04T11:29:01;100485.81;;;15.95;66.43
54556;BME280;57291;37.520;15.106;2023-04-04T11:31:38;100491.81;;;16.22;64.22
54556;BME280;57291;37.520;15.106;2023-04-04T11:34:10;100499.09;;;16.39;64.00
54556;BME280;57291;37.520;15.106;2023-04-04T11:42:03;100508.38;;;16.59;63.03
54556;BME280;57291;37.520;15.106;2023-04-04T11:44:39;100497.34;;;16.34;63.05
54556;BME280;57291;37.520;15.106;2023-04-04T11:49:39;100494.63;;;16.01;62.88
54556;BME280;57291;37.520;15.106;2023-04-04T11:52:12;100499.78;;;15.82;64.55
54556;BME280;57291;37.520;15.106;2023-04-04T11:54:41;100498.88;;;15.78;64.99
54556;BME280;57291;37.520;15.106;2023-04-04T11:57:16;100494.66;;;15.80;66.20
54556;BME280;57291;37.520;15.106;2023-04-04T11:59:46;100492.84;;;15.63;67.34
54556;BME280;57291;37.520;15.106;2023-04-04T12:02:17;100478.94;;;15.47;68.95
54556;BME280;57291;37.520;15.106;2023-04-04T12:04:45;100468.38;;;15.16;70.51
54556;BME280;57291;37.520;15.106;2023-04-04T12:07:13;100466.63;;;15.12;71.66
54556;BME280;57291;37.520;15.106;2023-04-04T12:09:42;100483.53;;;15.14;71.80
54556;BME280;57291;37.520;15.106;2023-04-04T12:12:16;100494.38;;;15.01;70.15
54556;BME280;57291;37.520;15.106;2023-04-04T12:14:43;100487.13;;;15.06;69.98
54556;BME280;57291;37.520;15.106;2023-04-04T12:17:10;100494.97;;;15.37;68.32
54556;BME280;57291;37.520;15.106;2023-04-04T12:19:38;100497.06;;;15.61;66.90
54556;BME280;57291;37.520;15.106;2023-04-04T12:22:06;100492.22;;;15.66;65.42
54556;BME280;57291;37.520;15.106;2023-04-04T12:24:34;100488.38;;;15.80;66.44
54556;BME280;57291;37.520;15.106;2023-04-04T12:27:02;100487.84;;;15.86;65.27
54556;BME280;57291;37.520;15.106;2023-04-04T12:29:31;100490.66;;;15.78;65.13
54556;BME280;57291;37.520;15.106;2023-04-04T12:32:05;100493.19;;;15.83;64.93
54556;BME280;57291;37.520;15.106;2023-04-04T12:34:34;100499.59;;;15.87;64.49
54556;BME280;57291;37.520;15.106;2023-04-04T12:37:02;100510.56;;;15.87;64.90
54556;BME280;57291;37.520;15.106;2023-04-04T12:39:29;100502.41;;;15.99;64.52
54556;BME280;57291;37.520;15.106;2023-04-04T12:42:01;100510.16;;;15.97;64.95
54556;BME280;57291;37.520;15.106;2023-04-04T12:44:32;100508.94;;;16.07;65.83
54556;BME280;57291;37.520;15.106;2023-04-04T12:47:05;100505.97;;;16.12;64.55
54556;BME280;57291;37.520;15.106;2023-04-04T12:49:41;100510.94;;;16.31;65.53
54556;BME280;57291;37.520;15.106;2023-04-04T12:52:37;100509.38;;;16.42;65.36
54556;BME280;57291;37.520;15.106;2023-04-04T12:55:09;100505.41;;;16.64;64.17
54556;BME280;57291;37.520;15.106;2023-04-04T12:57:38;100495.66;;;16.54;63.47
54556;BME280;57291;37.520;15.106;2023-04-04T13:00:06;100494.97;;;16.33;64.05
54556;BME280;57291;37.520;15.106;2023-04-04T13:02:36;100494.31;;;16.15;64.01
54556;BME280;57291;37.520;15.106;2023-04-04T13:05:04;100504.72;;;16.09;64.69
54556;BME280;57291;37.520;15.106;2023-04-04T13:07:35;100515.34;;;16.11;63.09
54556;BME280;57291;37.520;15.106;2023-04-04T13:10:12;100510.94;;;16.31;62.61
54556;BME280;57291;37.520;15.106;2023-04-04T13:12:56;100522.44;;;16.70;62.43
54556;BME280;57291;37.520;15.106;2023-04-04T13:15:46;100530.66;;;16.57;61.24
54556;BME280;57291;37.520;15.106;2023-04-04T13:18:16;100532.16;;;16.67;60.53
54556;BME280;57291;37.520;15.106;2023-04-04T13:20:44;100520.75;;;16.32;60.87